sensor_id;sensor_type;location;lat;lon;timestamp;P1;durP1;ratioP1;P2;durP2;ratioP2
2750;SDS011;1383;48.362;10.908;2023-05-18T00:00:53;8.73;;;7.83;;
2750;SDS011;1383;48.362;10.908;2023-05-18T00:03:20;10.27;;;8.47;;
2750;SDS011;1383;48.362;10.908;2023-05-18T00:05:48;13.73;;;8.37;;
2750;SDS011;1383;48.362;10.908;2023-05-18T00:08:15;11.63;;;8.03;;
2750;SDS011;1383;48.362;10.908;2023-05-18T00:10:42;11.40;;;8.00;;
2750;SDS011;1383;48.362;10.908;2023-05-18T00:13:09;13.60;;;7.60;;
2750;SDS011;1383;48.362;10.908;2023-05-18T00:15:36;10.70;;;7.67;;
2750;SDS011;1383;48.362;10.908;2023-05-18T00:18:02;10.57;;;7.93;;
2750;SDS011;1383;48.362;10.908;2023-05-18T00:20:29;8.90;;;7.17;;
2750;SDS011;1383;48.362;10.908;2023-05-18T00:22:56;11.40;;;7.00;;
2750;SDS011;1383;48.362;10.908;2023-05-18T00:25:23;7.70;;;6.90;;
2750;SDS011;1383;48.362;10.908;2023-05-18T00:27:50;10.43;;;7.13;;
2750;SDS011;1383;48.362;10.908;2023-05-18T00:30:17;9.97;;;7.13;;
2750;SDS011;1383;48.362;10.908;2023-05-18T00:32:44;9.77;;;6.80;;
2750;SDS011;1383;48.362;10.908;2023-05-18T00:35:11;10.90;;;7.23;;
2750;SDS011;1383;48.362;10.908;2023-05-18T00:37:38;10.17;;;7.37;;
2750;SDS011;1383;48.362;10.908;2023-05-18T00:40:08;11.80;;;6.83;;
2750;SDS011;1383;48.362;10.908;2023-05-18T00:42:36;7.40;;;6.17;;
2750;SDS011;1383;48.362;10.908;2023-05-18T00:45:03;9.50;;;7.03;;
2750;SDS011;1383;48.362;10.908;2023-05-18T00:47:31;8.97;;;7.23;;
2750;SDS011;1383;48.362;10.908;2023-05-18T00:49:58;13.10;;;7.70;;
2750;SDS011;1383;48.362;10.908;2023-05-18T00:52:25;8.50;;;6.37;;
2750;SDS011;1383;48.362;10.908;2023-05-18T00:54:53;12.23;;;7.03;;
2750;SDS011;1383;48.362;10.908;2023-05-18T00:57:23;14.03;;;7.53;;
2750;SDS011;1383;48.362;10.908;2023-05-18T00:59:51;11.20;;;6.17;;
2750;SDS011;1383;48.362;10.908;2023-05-18T01:02:18;8.63;;;7.10;;
2750;SDS011;1383;48.362;10.908;2023-05-18T01:04:45;8.47;;;6.50;;
2750;SDS011;1383;48.362;10.908;2023-05-18T01:07:12;8.33;;;6.00;;
2750;SDS011;1383;48.362;10.908;2023-05-18T01:09:41;12.30;;;6.97;;
2750;SDS011;1383;48.362;10.908;2023-05-18T01:12:18;7.40;;;6.60;;
2750;SDS011;1383;48.362;10.908;2023-05-18T01:15:03;7.80;;;6.60;;
2750;SDS011;1383;48.362;10.908;2023-05-18T01:20:30;10.03;;;6.27;;
2750;SDS011;1383;48.362;10.908;2023-05-18T01:28:22;8.97;;;6.10;;
2750;SDS011;1383;48.362;10.908;2023-05-18T01:30:53;10.57;;;6.50;;
2750;SDS011;1383;48.362;10.908;2023-05-18T01:33:20;10.30;;;7.90;;
2750;SDS011;1383;48.362;10.908;2023-05-18T01:35:47;8.20;;;6.70;;
2750;SDS011;1383;48.362;10.908;2023-05-18T01:38:15;7.70;;;5.70;;
2750;SDS011;1383;48.362;10.908;2023-05-18T01:40:47;8.40;;;6.00;;
2750;SDS011;1383;48.362;10.908;2023-05-18T01:43:15;8.80;;;5.72;;
2750;SDS011;1383;48.362;10.908;2023-05-18T01:45:46;7.37;;;6.00;;
2750;SDS011;1383;48.362;10.908;2023-05-18T01:48:17;10.43;;;6.25;;
2750;SDS011;1383;48.362;10.908;2023-05-18T01:50:47;6.65;;;4.78;;
2750;SDS011;1383;48.362;10.908;2023-05-18T01:53:19;8.32;;;5.57;;
2750;SDS011;1383;48.362;10.908;2023-05-18T01:55:52;10.95;;;6.05;;
2750;SDS011;1383;48.362;10.908;2023-05-18T01:58:20;7.40;;;5.47;;
2750;SDS011;1383;48.362;10.908;2023-05-18T02:00:48;7.05;;;5.63;;
2750;SDS011;1383;48.362;10.908;2023-05-18T02:03:16;6.72;;;5.95;;
2750;SDS011;1383;48.362;10.908;2023-05-18T02:05:43;6.20;;;5.55;;
2750;SDS011;1383;48.362;10.908;2023-05-18T02:08:10;5.95;;;5.32;;
2750;SDS011;1383;48.362;10.908;2023-05-18T02:10:37;7.65;;;5.18;;
2750;SDS011;1383;48.362;10.908;2023-05-18T02:13:03;9.38;;;5.70;;
2750;SDS011;1383;48.362;10.908;2023-05-18T02:15:30;8.63;;;6.15;;
2750;SDS011;1383;48.362;10.908;2023-05-18T02:17:57;10.02;;;5.82;;
2750;SDS011;1383;48.362;10.908;2023-05-18T02:20:24;12.68;;;7.05;;
2750;SDS011;1383;48.362;10.908;2023-05-18T02:22:54;8.20;;;6.68;;
2750;SDS011;1383;48.362;10.908;2023-05-18T02:25:21;8.27;;;5.55;;
2750;SDS011;1383;48.362;10.908;2023-05-18T02:27:47;6.68;;;5.47;;
2750;SDS011;1383;48.362;10.908;2023-05-18T02:30:14;13.25;;;6.15;;
2750;SDS011;1383;48.362;10.908;2023-05-18T02:32:41;8.40;;;6.25;;
2750;SDS011;1383;48.362;10.908;2023-05-18T02:35:12;8.90;;;5.60;;
2750;SDS011;1383;48.362;10.908;2023-05-18T02:37:39;8.40;;;6.50;;
2750;SDS011;1383;48.362;10.908;2023-05-18T02:40:09;11.65;;;6.80;;
2750;SDS011;1383;48.362;10.908;2023-05-18T02:42:37;6.85;;;6.15;;
2750;SDS011;1383;48.362;10.908;2023-05-18T02:45:05;10.85;;;6.07;;
2750;SDS011;1383;48.362;10.908;2023-05-18T02:47:33;10.02;;;6.57;;
2750;SDS011;1383;48.362;10.908;2023-05-18T02:49:59;12.18;;;5.88;;
2750;SDS011;1383;48.362;10.908;2023-05-18T02:52:26;10.15;;;6.50;;
2750;SDS011;1383;48.362;10.908;2023-05-18T02:54:54;9.00;;;6.25;;
2750;SDS011;1383;48.362;10.908;2023-05-18T02:57:21;11.20;;;6.40;;
2750;SDS011;1383;48.362;10.908;2023-05-18T02:59:48;11.40;;;6.53;;
2750;SDS011;1383;48.362;10.908;2023-05-18T03:02:14;9.93;;;6.20;;
2750;SDS011;1383;48.362;10.908;2023-05-18T03:04:41;11.68;;;6.57;;
2750;SDS011;1383;48.362;10.908;2023-05-18T03:07:08;12.45;;;5.55;;
2750;SDS011;1383;48.362;10.908;2023-05-18T03:09:36;6.45;;;5.75;;
2750;SDS011;1383;48.362;10.908;2023-05-18T03:12:03;8.35;;;6.70;;
2750;SDS011;1383;48.362;10.908;2023-05-18T03:14:30;9.20;;;6.07;;
2750;SDS011;1383;48.362;10.908;2023-05-18T03:16:57;9.35;;;6.05;;
2750;SDS011;1383;48.362;10.908;2023-05-18T03:19:24;12.68;;;7.18;;
2750;SDS011;1383;48.362;10.908;2023-05-18T03:21:52;10.52;;;6.47;;
2750;SDS011;1383;48.362;10.908;2023-05-18T03:24:19;14.98;;;7.20;;
2750;SDS011;1383;48.362;10.908;2023-05-18T03:26:46;10.00;;;6.70;;
2750;SDS011;1383;48.362;10.908;2023-05-18T03:29:13;8.65;;;7.07;;
2750;SDS011;1383;48.362;10.908;2023-05-18T03:31:39;8.52;;;6.53;;
2750;SDS011;1383;48.362;10.908;2023-05-18T03:34:06;12.57;;;6.80;;
2750;SDS011;1383;48.362;10.908;2023-05-18T03:36:33;7.95;;;5.82;;
2750;SDS011;1383;48.362;10.908;2023-05-18T03:39:01;10.88;;;6.68;;
2750;SDS011;1383;48.362;10.908;2023-05-18T03:41:27;10.55;;;5.78;;
2750;SDS011;1383;48.362;10.908;2023-05-18T03:43:55;13.38;;;6.55;;
2750;SDS011;1383;48.362;10.908;2023-05-18T03:46:22;18.63;;;7.50;;
2750;SDS011;1383;48.362;10.908;2023-05-18T03:48:49;7.75;;;6.18;;
2750;SDS011;1383;48.362;10.908;2023-05-18T03:51:16;7.75;;;7.00;;
2750;SDS011;1383;48.362;10.908;2023-05-18T03:53:43;9.87;;;7.10;;
2750;SDS011;1383;48.362;10.908;2023-05-18T03:56:10;10.30;;;6.10;;
2750;SDS011;1383;48.362;10.908;2023-05-18T03:58:38;8.73;;;7.03;;
2750;SDS011;1383;48.362;10.908;2023-05-18T04:01:05;7.15;;;6.45;;
2750;SDS011;1383;48.362;10.908;2023-05-18T04:03:32;8.23;;;6.73;;
2750;SDS011;1383;48.362;10.908;2023-05-18T04:06:00;7.20;;;5.65;;
2750;SDS011;1383;48.362;10.908;2023-05-18T04:08:27;9.75;;;5.88;;
2750;SDS011;1383;48.362;10.908;2023-05-18T04:10:55;7.85;;;6.80;;
2750;SDS011;1383;48.362;10.908;2023-05-18T04:13:22;7.32;;;6.47;;
2750;SDS011;1383;48.362;10.908;2023-05-18T04:15:49;8.35;;;6.47;;
2750;SDS011;1383;48.362;10.908;2023-05-18T04:18:16;9.60;;;5.70;;
2750;SDS011;1383;48.362;10.908;2023-05-18T04:20:42;10.77;;;6.77;;
2750;SDS011;1383;48.362;10.908;2023-05-18T04:23:11;9.40;;;6.78;;
2750;SDS011;1383;48.362;10.908;2023-05-18T04:25:38;6.50;;;5.63;;
2750;SDS011;1383;48.362;10.908;2023-05-18T04:28:06;9.50;;;6.60;;
2750;SDS011;1383;48.362;10.908;2023-05-18T04:30:35;10.77;;;6.20;;
2750;SDS011;1383;48.362;10.908;2023-05-18T04:33:03;9.55;;;6.30;;
2750;SDS011;1383;48.362;10.908;2023-05-18T04:35:32;9.68;;;6.07;;
2750;SDS011;1383;48.362;10.908;2023-05-18T04:37:58;10.50;;;6.28;;
2750;SDS011;1383;48.362;10.908;2023-05-18T04:40:25;10.52;;;5.90;;
2750;SDS011;1383;48.362;10.908;2023-05-18T04:42:52;8.38;;;6.57;;
2750;SDS011;1383;48.362;10.908;2023-05-18T04:45:19;8.85;;;6.07;;
2750;SDS011;1383;48.362;10.908;2023-05-18T04:47:47;13.53;;;6.97;;
2750;SDS011;1383;48.362;10.908;2023-05-18T04:50:19;7.00;;;6.30;;
2750;SDS011;1383;48.362;10.908;2023-05-18T04:52:50;8.70;;;6.60;;
2750;SDS011;1383;48.362;10.908;2023-05-18T04:55:18;8.40;;;6.03;;
2750;SDS011;1383;48.362;10.908;2023-05-18T04:57:53;8.23;;;7.30;;
2750;SDS011;1383;48.362;10.908;2023-05-18T05:00:22;11.13;;;7.00;;
2750;SDS011;1383;48.362;10.908;2023-05-18T05:02:51;10.23;;;6.25;;
2750;SDS011;1383;48.362;10.908;2023-05-18T05:05:19;8.07;;;6.57;;
2750;SDS011;1383;48.362;10.908;2023-05-18T05:07:49;8.43;;;6.10;;
2750;SDS011;1383;48.362;10.908;2023-05-18T05:10:20;8.23;;;6.30;;
2750;SDS011;1383;48.362;10.908;2023-05-18T05:12:48;8.80;;;6.80;;
2750;SDS011;1383;48.362;10.908;2023-05-18T05:15:16;9.13;;;7.38;;
2750;SDS011;1383;48.362;10.908;2023-05-18T05:17:44;6.43;;;5.70;;
2750;SDS011;1383;48.362;10.908;2023-05-18T05:20:12;7.40;;;5.65;;
2750;SDS011;1383;48.362;10.908;2023-05-18T05:22:39;8.00;;;5.50;;
2750;SDS011;1383;48.362;10.908;2023-05-18T05:25:06;7.23;;;6.20;;
2750;SDS011;1383;48.362;10.908;2023-05-18T05:27:33;10.32;;;6.45;;
2750;SDS011;1383;48.362;10.908;2023-05-18T05:30:00;6.40;;;5.47;;
2750;SDS011;1383;48.362;10.908;2023-05-18T05:32:27;8.87;;;5.20;;
2750;SDS011;1383;48.362;10.908;2023-05-18T05:34:54;7.27;;;5.90;;
2750;SDS011;1383;48.362;10.908;2023-05-18T05:37:21;7.27;;;5.30;;
2750;SDS011;1383;48.362;10.908;2023-05-18T05:39:47;7.53;;;5.00;;
2750;SDS011;1383;48.362;10.908;2023-05-18T05:42:14;6.87;;;5.30;;
2750;SDS011;1383;48.362;10.908;2023-05-18T05:44:41;6.40;;;5.53;;
2750;SDS011;1383;48.362;10.908;2023-05-18T05:47:08;8.53;;;6.20;;
2750;SDS011;1383;48.362;10.908;2023-05-18T05:49:35;6.37;;;5.70;;
2750;SDS011;1383;48.362;10.908;2023-05-18T05:52:02;8.10;;;5.23;;
2750;SDS011;1383;48.362;10.908;2023-05-18T05:54:29;6.50;;;5.90;;
2750;SDS011;1383;48.362;10.908;2023-05-18T05:56:56;9.37;;;5.43;;
2750;SDS011;1383;48.362;10.908;2023-05-18T05:59:23;6.20;;;5.60;;
2750;SDS011;1383;48.362;10.908;2023-05-18T06:01:50;5.83;;;5.13;;
2750;SDS011;1383;48.362;10.908;2023-05-18T06:04:17;9.70;;;4.83;;
2750;SDS011;1383;48.362;10.908;2023-05-18T06:06:44;5.50;;;4.97;;
2750;SDS011;1383;48.362;10.908;2023-05-18T06:09:12;7.33;;;5.03;;
2750;SDS011;1383;48.362;10.908;2023-05-18T06:11:39;5.53;;;4.97;;
2750;SDS011;1383;48.362;10.908;2023-05-18T06:14:06;6.10;;;5.10;;
2750;SDS011;1383;48.362;10.908;2023-05-18T06:16:33;6.93;;;5.90;;
2750;SDS011;1383;48.362;10.908;2023-05-18T06:19:00;4.53;;;4.13;;
2750;SDS011;1383;48.362;10.908;2023-05-18T06:21:26;7.20;;;5.67;;
2750;SDS011;1383;48.362;10.908;2023-05-18T06:23:53;5.37;;;4.90;;
2750;SDS011;1383;48.362;10.908;2023-05-18T06:26:21;5.40;;;4.53;;
2750;SDS011;1383;48.362;10.908;2023-05-18T06:28:48;7.17;;;4.90;;
2750;SDS011;1383;48.362;10.908;2023-05-18T06:31:15;4.73;;;4.23;;
2750;SDS011;1383;48.362;10.908;2023-05-18T06:33:44;10.00;;;4.80;;
2750;SDS011;1383;48.362;10.908;2023-05-18T06:36:10;4.73;;;4.30;;
2750;SDS011;1383;48.362;10.908;2023-05-18T06:38:37;6.07;;;4.53;;
2750;SDS011;1383;48.362;10.908;2023-05-18T06:41:04;6.67;;;4.70;;
2750;SDS011;1383;48.362;10.908;2023-05-18T06:43:31;7.93;;;4.43;;
2750;SDS011;1383;48.362;10.908;2023-05-18T06:45:57;8.13;;;4.90;;
2750;SDS011;1383;48.362;10.908;2023-05-18T06:48:25;5.07;;;4.57;;
2750;SDS011;1383;48.362;10.908;2023-05-18T06:50:53;4.97;;;4.23;;
2750;SDS011;1383;48.362;10.908;2023-05-18T06:53:21;8.50;;;4.93;;
2750;SDS011;1383;48.362;10.908;2023-05-18T06:55:48;6.20;;;4.70;;
2750;SDS011;1383;48.362;10.908;2023-05-18T06:58:15;6.43;;;4.90;;
2750;SDS011;1383;48.362;10.908;2023-05-18T07:00:42;7.33;;;4.23;;
2750;SDS011;1383;48.362;10.908;2023-05-18T07:03:09;8.63;;;5.63;;
2750;SDS011;1383;48.362;10.908;2023-05-18T07:05:36;5.90;;;4.70;;
2750;SDS011;1383;48.362;10.908;2023-05-18T07:08:05;5.90;;;4.50;;
2750;SDS011;1383;48.362;10.908;2023-05-18T07:10:32;6.87;;;4.63;;
2750;SDS011;1383;48.362;10.908;2023-05-18T07:13:00;4.93;;;4.40;;
2750;SDS011;1383;48.362;10.908;2023-05-18T07:15:27;5.83;;;4.00;;
2750;SDS011;1383;48.362;10.908;2023-05-18T07:17:55;7.87;;;4.77;;
2750;SDS011;1383;48.362;10.908;2023-05-18T07:20:22;10.10;;;5.40;;
2750;SDS011;1383;48.362;10.908;2023-05-18T07:22:51;8.73;;;5.07;;
2750;SDS011;1383;48.362;10.908;2023-05-18T07:25:20;9.90;;;5.57;;
2750;SDS011;1383;48.362;10.908;2023-05-18T07:27:47;6.70;;;4.80;;
2750;SDS011;1383;48.362;10.908;2023-05-18T07:30:17;6.23;;;4.40;;
2750;SDS011;1383;48.362;10.908;2023-05-18T07:32:44;4.57;;;4.10;;
2750;SDS011;1383;48.362;10.908;2023-05-18T07:35:11;7.73;;;4.43;;
2750;SDS011;1383;48.362;10.908;2023-05-18T07:37:38;4.37;;;3.60;;
2750;SDS011;1383;48.362;10.908;2023-05-18T07:40:05;5.53;;;4.10;;
2750;SDS011;1383;48.362;10.908;2023-05-18T07:42:34;5.20;;;4.43;;
2750;SDS011;1383;48.362;10.908;2023-05-18T07:45:01;10.63;;;5.77;;
2750;SDS011;1383;48.362;10.908;2023-05-18T07:47:28;7.67;;;4.40;;
2750;SDS011;1383;48.362;10.908;2023-05-18T07:49:55;8.07;;;4.17;;
2750;SDS011;1383;48.362;10.908;2023-05-18T07:52:22;7.70;;;4.80;;
2750;SDS011;1383;48.362;10.908;2023-05-18T07:54:48;5.30;;;4.43;;
2750;SDS011;1383;48.362;10.908;2023-05-18T07:57:15;4.40;;;3.83;;
2750;SDS011;1383;48.362;10.908;2023-05-18T07:59:42;7.10;;;3.40;;
2750;SDS011;1383;48.362;10.908;2023-05-18T08:02:09;4.93;;;4.07;;
2750;SDS011;1383;48.362;10.908;2023-05-18T08:04:35;5.80;;;4.53;;
2750;SDS011;1383;48.362;10.908;2023-05-18T08:07:02;6.40;;;4.07;;
2750;SDS011;1383;48.362;10.908;2023-05-18T08:09:30;7.97;;;3.60;;
2750;SDS011;1383;48.362;10.908;2023-05-18T08:11:57;5.13;;;4.10;;
2750;SDS011;1383;48.362;10.908;2023-05-18T08:14:23;7.37;;;4.77;;
2750;SDS011;1383;48.362;10.908;2023-05-18T08:16:50;7.90;;;4.30;;
2750;SDS011;1383;48.362;10.908;2023-05-18T08:19:17;4.80;;;3.70;;
2750;SDS011;1383;48.362;10.908;2023-05-18T08:21:44;5.00;;;3.93;;
2750;SDS011;1383;48.362;10.908;2023-05-18T08:24:11;7.10;;;4.30;;
2750;SDS011;1383;48.362;10.908;2023-05-18T08:26:38;6.60;;;4.37;;
2750;SDS011;1383;48.362;10.908;2023-05-18T08:29:05;6.40;;;4.17;;
2750;SDS011;1383;48.362;10.908;2023-05-18T08:31:36;6.20;;;5.60;;
2750;SDS011;1383;48.362;10.908;2023-05-18T08:34:03;9.03;;;4.13;;
2750;SDS011;1383;48.362;10.908;2023-05-18T08:36:32;4.13;;;3.53;;
2750;SDS011;1383;48.362;10.908;2023-05-18T08:38:59;7.50;;;4.37;;
2750;SDS011;1383;48.362;10.908;2023-05-18T08:41:28;6.30;;;4.80;;
2750;SDS011;1383;48.362;10.908;2023-05-18T08:44:02;4.43;;;2.90;;
2750;SDS011;1383;48.362;10.908;2023-05-18T08:46:35;5.57;;;3.43;;
2750;SDS011;1383;48.362;10.908;2023-05-18T08:49:08;7.40;;;3.80;;
2750;SDS011;1383;48.362;10.908;2023-05-18T08:51:36;4.50;;;3.10;;
2750;SDS011;1383;48.362;10.908;2023-05-18T08:54:03;6.80;;;3.00;;
2750;SDS011;1383;48.362;10.908;2023-05-18T08:56:33;5.60;;;3.30;;
2750;SDS011;1383;48.362;10.908;2023-05-18T08:59:04;4.70;;;3.53;;
2750;SDS011;1383;48.362;10.908;2023-05-18T09:01:33;6.97;;;2.90;;
2750;SDS011;1383;48.362;10.908;2023-05-18T09:04:01;6.93;;;4.33;;
2750;SDS011;1383;48.362;10.908;2023-05-18T09:06:29;8.53;;;4.30;;
2750;SDS011;1383;48.362;10.908;2023-05-18T09:08:59;7.47;;;4.60;;
2750;SDS011;1383;48.362;10.908;2023-05-18T09:11:30;6.13;;;5.00;;
2750;SDS011;1383;48.362;10.908;2023-05-18T09:13:58;5.73;;;3.97;;
2750;SDS011;1383;48.362;10.908;2023-05-18T09:16:26;6.53;;;4.07;;
2750;SDS011;1383;48.362;10.908;2023-05-18T09:18:54;10.10;;;3.67;;
2750;SDS011;1383;48.362;10.908;2023-05-18T09:21:21;9.23;;;4.13;;
2750;SDS011;1383;48.362;10.908;2023-05-18T09:23:48;8.40;;;5.10;;
2750;SDS011;1383;48.362;10.908;2023-05-18T09:26:16;8.37;;;3.80;;
2750;SDS011;1383;48.362;10.908;2023-05-18T09:28:44;7.00;;;4.00;;
2750;SDS011;1383;48.362;10.908;2023-05-18T09:31:18;4.33;;;3.60;;
2750;SDS011;1383;48.362;10.908;2023-05-18T09:33:46;7.40;;;3.63;;
2750;SDS011;1383;48.362;10.908;2023-05-18T09:36:13;10.13;;;4.07;;
2750;SDS011;1383;48.362;10.908;2023-05-18T09:38:42;6.20;;;3.40;;
2750;SDS011;1383;48.362;10.908;2023-05-18T09:41:12;7.33;;;4.47;;
2750;SDS011;1383;48.362;10.908;2023-05-18T09:43:42;7.20;;;3.87;;
2750;SDS011;1383;48.362;10.908;2023-05-18T09:46:11;10.50;;;5.57;;
2750;SDS011;1383;48.362;10.908;2023-05-18T09:48:42;6.27;;;4.50;;
2750;SDS011;1383;48.362;10.908;2023-05-18T09:51:12;5.60;;;3.87;;
2750;SDS011;1383;48.362;10.908;2023-05-18T09:54:03;3.57;;;3.27;;
2750;SDS011;1383;48.362;10.908;2023-05-18T09:56:30;5.73;;;4.13;;
2750;SDS011;1383;48.362;10.908;2023-05-18T09:59:08;6.20;;;4.23;;
2750;SDS011;1383;48.362;10.908;2023-05-18T10:01:37;6.93;;;4.40;;
2750;SDS011;1383;48.362;10.908;2023-05-18T10:04:22;4.50;;;3.90;;
2750;SDS011;1383;48.362;10.908;2023-05-18T10:06:59;4.73;;;3.67;;
2750;SDS011;1383;48.362;10.908;2023-05-18T10:09:27;5.90;;;4.57;;
2750;SDS011;1383;48.362;10.908;2023-05-18T10:11:54;5.37;;;3.80;;
2750;SDS011;1383;48.362;10.908;2023-05-18T10:14:24;9.20;;;4.10;;
2750;SDS011;1383;48.362;10.908;2023-05-18T10:16:56;5.97;;;3.43;;
2750;SDS011;1383;48.362;10.908;2023-05-18T10:19:41;7.00;;;4.40;;
2750;SDS011;1383;48.362;10.908;2023-05-18T10:22:09;11.90;;;9.83;;
2750;SDS011;1383;48.362;10.908;2023-05-18T10:24:41;8.23;;;7.20;;
2750;SDS011;1383;48.362;10.908;2023-05-18T10:27:10;7.10;;;3.53;;
2750;SDS011;1383;48.362;10.908;2023-05-18T10:29:41;4.47;;;3.47;;
2750;SDS011;1383;48.362;10.908;2023-05-18T10:32:09;4.27;;;2.83;;
2750;SDS011;1383;48.362;10.908;2023-05-18T10:34:37;4.70;;;4.07;;
2750;SDS011;1383;48.362;10.908;2023-05-18T10:37:07;4.50;;;3.50;;
2750;SDS011;1383;48.362;10.908;2023-05-18T10:39:37;5.20;;;3.40;;
2750;SDS011;1383;48.362;10.908;2023-05-18T10:42:07;10.37;;;4.93;;
2750;SDS011;1383;48.362;10.908;2023-05-18T10:44:35;6.03;;;3.57;;
2750;SDS011;1383;48.362;10.908;2023-05-18T10:47:04;8.53;;;4.50;;
2750;SDS011;1383;48.362;10.908;2023-05-18T10:49:31;6.13;;;3.53;;
2750;SDS011;1383;48.362;10.908;2023-05-18T10:51:58;3.97;;;3.20;;
2750;SDS011;1383;48.362;10.908;2023-05-18T10:54:28;6.27;;;3.30;;
2750;SDS011;1383;48.362;10.908;2023-05-18T10:56:55;12.23;;;3.37;;
2750;SDS011;1383;48.362;10.908;2023-05-18T10:59:22;8.00;;;3.50;;
2750;SDS011;1383;48.362;10.908;2023-05-18T11:01:50;6.20;;;4.07;;
2750;SDS011;1383;48.362;10.908;2023-05-18T11:04:25;6.43;;;3.67;;
2750;SDS011;1383;48.362;10.908;2023-05-18T11:06:53;6.50;;;3.50;;
2750;SDS011;1383;48.362;10.908;2023-05-18T11:09:22;7.10;;;3.77;;
2750;SDS011;1383;48.362;10.908;2023-05-18T11:11:55;8.87;;;4.23;;
2750;SDS011;1383;48.362;10.908;2023-05-18T11:14:29;10.63;;;4.03;;
2750;SDS011;1383;48.362;10.908;2023-05-18T11:22:39;5.83;;;3.60;;
2750;SDS011;1383;48.362;10.908;2023-05-18T11:25:07;6.33;;;4.40;;
2750;SDS011;1383;48.362;10.908;2023-05-18T11:27:35;5.87;;;4.30;;
2750;SDS011;1383;48.362;10.908;2023-05-18T11:30:02;4.83;;;3.90;;
2750;SDS011;1383;48.362;10.908;2023-05-18T11:32:48;5.53;;;3.33;;
2750;SDS011;1383;48.362;10.908;2023-05-18T11:35:26;6.63;;;4.30;;
2750;SDS011;1383;48.362;10.908;2023-05-18T11:37:53;7.13;;;3.83;;
2750;SDS011;1383;48.362;10.908;2023-05-18T11:43:23;6.70;;;3.80;;
2750;SDS011;1383;48.362;10.908;2023-05-18T11:45:55;3.97;;;3.30;;
2750;SDS011;1383;48.362;10.908;2023-05-18T11:48:27;4.70;;;3.00;;
2750;SDS011;1383;48.362;10.908;2023-05-18T11:50:55;6.97;;;3.63;;
2750;SDS011;1383;48.362;10.908;2023-05-18T11:53:22;5.20;;;3.30;;
2750;SDS011;1383;48.362;10.908;2023-05-18T11:55:51;4.13;;;3.30;;
2750;SDS011;1383;48.362;10.908;2023-05-18T11:58:20;5.80;;;4.43;;
2750;SDS011;1383;48.362;10.908;2023-05-18T12:00:49;6.27;;;2.80;;
2750;SDS011;1383;48.362;10.908;2023-05-18T12:03:17;7.43;;;3.77;;
2750;SDS011;1383;48.362;10.908;2023-05-18T12:05:48;4.03;;;2.87;;
2750;SDS011;1383;48.362;10.908;2023-05-18T12:08:18;7.30;;;4.77;;
2750;SDS011;1383;48.362;10.908;2023-05-18T12:10:47;4.40;;;3.40;;
2750;SDS011;1383;48.362;10.908;2023-05-18T12:13:15;4.50;;;3.40;;
2750;SDS011;1383;48.362;10.908;2023-05-18T12:15:43;5.10;;;3.47;;
2750;SDS011;1383;48.362;10.908;2023-05-18T12:18:10;5.67;;;3.30;;
2750;SDS011;1383;48.362;10.908;2023-05-18T12:20:38;4.83;;;3.60;;
2750;SDS011;1383;48.362;10.908;2023-05-18T12:23:06;8.67;;;3.67;;
2750;SDS011;1383;48.362;10.908;2023-05-18T12:25:33;7.17;;;3.00;;
2750;SDS011;1383;48.362;10.908;2023-05-18T12:28:01;5.13;;;3.00;;
2750;SDS011;1383;48.362;10.908;2023-05-18T12:30:30;5.10;;;3.10;;
2750;SDS011;1383;48.362;10.908;2023-05-18T12:33:05;5.77;;;4.03;;
2750;SDS011;1383;48.362;10.908;2023-05-18T12:35:33;9.83;;;3.37;;
2750;SDS011;1383;48.362;10.908;2023-05-18T12:38:00;5.50;;;3.33;;
2750;SDS011;1383;48.362;10.908;2023-05-18T12:40:35;5.63;;;3.27;;
2750;SDS011;1383;48.362;10.908;2023-05-18T12:43:10;7.60;;;3.43;;
2750;SDS011;1383;48.362;10.908;2023-05-18T12:45:37;5.70;;;2.70;;
2750;SDS011;1383;48.362;10.908;2023-05-18T12:48:04;6.47;;;4.90;;
2750;SDS011;1383;48.362;10.908;2023-05-18T12:50:32;7.20;;;3.90;;
2750;SDS011;1383;48.362;10.908;2023-05-18T12:53:00;6.10;;;2.90;;
2750;SDS011;1383;48.362;10.908;2023-05-18T12:55:27;4.43;;;2.80;;
2750;SDS011;1383;48.362;10.908;2023-05-18T12:58:03;3.40;;;2.83;;
2750;SDS011;1383;48.362;10.908;2023-05-18T13:00:45;6.50;;;3.90;;
2750;SDS011;1383;48.362;10.908;2023-05-18T13:03:16;7.13;;;3.10;;
2750;SDS011;1383;48.362;10.908;2023-05-18T13:05:50;8.93;;;3.97;;
2750;SDS011;1383;48.362;10.908;2023-05-18T13:08:32;7.93;;;3.27;;
2750;SDS011;1383;48.362;10.908;2023-05-18T13:11:08;3.77;;;2.83;;
2750;SDS011;1383;48.362;10.908;2023-05-18T13:13:59;5.20;;;3.50;;
2750;SDS011;1383;48.362;10.908;2023-05-18T13:16:27;5.57;;;2.90;;
2750;SDS011;1383;48.362;10.908;2023-05-18T13:18:56;5.10;;;3.00;;
2750;SDS011;1383;48.362;10.908;2023-05-18T13:21:24;6.30;;;3.20;;
2750;SDS011;1383;48.362;10.908;2023-05-18T13:23:51;9.00;;;3.30;;
2750;SDS011;1383;48.362;10.908;2023-05-18T13:26:19;4.10;;;2.77;;
2750;SDS011;1383;48.362;10.908;2023-05-18T13:28:48;7.83;;;3.60;;
2750;SDS011;1383;48.362;10.908;2023-05-18T13:31:17;4.83;;;2.70;;
2750;SDS011;1383;48.362;10.908;2023-05-18T13:33:45;7.73;;;3.23;;
2750;SDS011;1383;48.362;10.908;2023-05-18T13:36:12;4.30;;;2.80;;
2750;SDS011;1383;48.362;10.908;2023-05-18T13:38:39;5.63;;;2.90;;
2750;SDS011;1383;48.362;10.908;2023-05-18T13:41:08;5.40;;;3.20;;
2750;SDS011;1383;48.362;10.908;2023-05-18T13:43:37;5.30;;;2.90;;
2750;SDS011;1383;48.362;10.908;2023-05-18T13:46:04;4.20;;;3.40;;
2750;SDS011;1383;48.362;10.908;2023-05-18T13:48:31;3.67;;;2.93;;
2750;SDS011;1383;48.362;10.908;2023-05-18T13:50:58;4.40;;;2.90;;
2750;SDS011;1383;48.362;10.908;2023-05-18T13:53:25;5.33;;;3.17;;
2750;SDS011;1383;48.362;10.908;2023-05-18T13:55:59;6.90;;;3.40;;
2750;SDS011;1383;48.362;10.908;2023-05-18T13:58:26;6.20;;;3.53;;
2750;SDS011;1383;48.362;10.908;2023-05-18T14:00:53;5.20;;;3.17;;
2750;SDS011;1383;48.362;10.908;2023-05-18T14:03:20;8.30;;;3.70;;
2750;SDS011;1383;48.362;10.908;2023-05-18T14:05:49;4.30;;;2.90;;
2750;SDS011;1383;48.362;10.908;2023-05-18T14:08:16;6.33;;;3.47;;
2750;SDS011;1383;48.362;10.908;2023-05-18T14:10:43;7.70;;;3.27;;
2750;SDS011;1383;48.362;10.908;2023-05-18T14:13:10;5.53;;;2.93;;
2750;SDS011;1383;48.362;10.908;2023-05-18T14:15:37;6.47;;;3.43;;
2750;SDS011;1383;48.362;10.908;2023-05-18T14:18:04;4.80;;;3.03;;
2750;SDS011;1383;48.362;10.908;2023-05-18T14:20:31;5.50;;;3.43;;
2750;SDS011;1383;48.362;10.908;2023-05-18T14:22:59;5.13;;;3.80;;
2750;SDS011;1383;48.362;10.908;2023-05-18T14:25:29;5.40;;;3.40;;
2750;SDS011;1383;48.362;10.908;2023-05-18T14:27:56;4.87;;;3.23;;
2750;SDS011;1383;48.362;10.908;2023-05-18T14:30:23;6.97;;;3.40;;
2750;SDS011;1383;48.362;10.908;2023-05-18T14:32:49;7.13;;;3.93;;
2750;SDS011;1383;48.362;10.908;2023-05-18T14:35:16;6.60;;;3.20;;
2750;SDS011;1383;48.362;10.908;2023-05-18T14:37:43;4.87;;;3.43;;
2750;SDS011;1383;48.362;10.908;2023-05-18T14:40:10;6.43;;;3.60;;
2750;SDS011;1383;48.362;10.908;2023-05-18T14:42:37;7.10;;;2.83;;
2750;SDS011;1383;48.362;10.908;2023-05-18T14:45:04;4.50;;;3.53;;
2750;SDS011;1383;48.362;10.908;2023-05-18T14:47:31;9.37;;;3.10;;
2750;SDS011;1383;48.362;10.908;2023-05-18T14:49:58;4.53;;;3.47;;
2750;SDS011;1383;48.362;10.908;2023-05-18T14:52:25;4.00;;;3.33;;
2750;SDS011;1383;48.362;10.908;2023-05-18T14:54:52;5.50;;;2.73;;
2750;SDS011;1383;48.362;10.908;2023-05-18T14:57:19;6.50;;;3.63;;
2750;SDS011;1383;48.362;10.908;2023-05-18T14:59:46;5.67;;;3.40;;
2750;SDS011;1383;48.362;10.908;2023-05-18T15:02:12;7.73;;;4.00;;
2750;SDS011;1383;48.362;10.908;2023-05-18T15:04:39;3.90;;;2.90;;
2750;SDS011;1383;48.362;10.908;2023-05-18T15:07:06;6.47;;;3.37;;
2750;SDS011;1383;48.362;10.908;2023-05-18T15:09:33;3.10;;;2.80;;
2750;SDS011;1383;48.362;10.908;2023-05-18T15:12:00;5.57;;;2.60;;
2750;SDS011;1383;48.362;10.908;2023-05-18T15:14:27;5.27;;;3.00;;
2750;SDS011;1383;48.362;10.908;2023-05-18T15:16:54;7.13;;;3.80;;
2750;SDS011;1383;48.362;10.908;2023-05-18T15:19:21;4.73;;;3.33;;
2750;SDS011;1383;48.362;10.908;2023-05-18T15:21:48;5.53;;;3.43;;
2750;SDS011;1383;48.362;10.908;2023-05-18T15:24:15;4.70;;;3.60;;